Time;durP1;ratioP1;P1;durP2;ratioP2;P2;SDS_P1;SDS_P2;PMS_P1;PMS_P2;Temp;Humidity;BMP_temperature;BMP_pressure;BME280_temperature;BME280_humidity;BME280_pressure;Samples;Min_cycle;Max_cycle;Signal;HPM_P1;HPM_P2
2022/11/21 00:00:15;;;;;;;46.07;35.37;;;;;;;;;;5066911;28;20650;-62
2022/11/21 00:02:40;;;;;;;47.63;36.10;;;;;;;;;;5065187;28;20184;-62
2022/11/21 00:05:05;;;;;;;45.20;35.93;;;;;;;;;;5070345;28;20186;-62
2022/11/21 00:07:31;;;;;;;47.60;34.90;;;;;;;;;;5064844;28;20176;-63
2022/11/21 00:09:56;;;;;;;46.03;35.73;;;;;;;;;;5086320;28;20607;-62
2022/11/21 00:12:21;;;;;;;44.37;34.57;;;;;;;;;;5075231;28;20215;-62
2022/11/21 00:14:46;;;;;;;46.83;35.30;;;;;;;;;;5064548;28;20183;-62
2022/11/21 00:17:11;;;;;;;49.60;36.10;;;;;;;;;;5071367;28;20183;-61
2022/11/21 00:19:36;;;;;;;48.87;36.97;;;;;;;;;;5074232;28;20215;-62
2022/11/21 00:22:01;;;;;;;55.37;37.33;;;;;;;;;;5088175;28;20258;-63
2022/11/21 00:24:27;;;;;;;50.13;35.07;;;;;;;;;;5086051;28;20183;-61
2022/11/21 00:26:52;;;;;;;51.50;37.27;;;;;;;;;;5084900;28;20216;-62
2022/11/21 00:29:17;;;;;;;51.97;37.60;;;;;;;;;;5086105;28;20189;-63
2022/11/21 00:31:42;;;;;;;48.37;36.57;;;;;;;;;;5080620;28;20179;-63
2022/11/21 00:34:08;;;;;;;51.60;38.60;;;;;;;;;;5058752;28;20182;-63
2022/11/21 00:36:33;;;;;;;47.27;35.97;;;;;;;;;;5070225;28;20250;-64
2022/11/21 00:38:58;;;;;;;46.63;35.73;;;;;;;;;;5069089;28;20231;-63
2022/11/21 00:41:23;;;;;;;53.38;37.65;;;;;;;;;;5070156;28;20168;-63
2022/11/21 00:43:49;;;;;;;48.57;36.60;;;;;;;;;;5069890;28;20172;-63
2022/11/21 00:46:14;;;;;;;51.40;37.53;;;;;;;;;;5075266;28;20181;-64
2022/11/21 00:48:39;;;;;;;49.13;37.37;;;;;;;;;;5076988;28;20183;-63
2022/11/21 00:51:04;;;;;;;47.90;37.07;;;;;;;;;;5072165;28;20237;-63
2022/11/21 00:53:29;;;;;;;48.63;36.80;;;;;;;;;;5090368;28;20167;-62
2022/11/21 00:55:55;;;;;;;47.73;36.70;;;;;;;;;;5085820;28;20628;-62
2022/11/21 00:58:20;;;;;;;49.30;35.73;;;;;;;;;;5083248;28;20286;-63
2022/11/21 01:00:45;;;;;;;44.93;35.17;;;;;;;;;;5073909;28;20186;-62
2022/11/21 01:03:10;;;;;;;51.30;37.20;;;;;;;;;;5084193;28;20170;-62
2022/11/21 01:05:35;;;;;;;46.07;34.80;;;;;;;;;;5091981;28;20181;-63
2022/11/21 01:08:00;;;;;;;46.53;34.87;;;;;;;;;;5093985;28;20167;-64
2022/11/21 01:10:26;;;;;;;49.53;36.00;;;;;;;;;;5077691;28;20690;-63
2022/11/21 01:12:51;;;;;;;46.63;35.43;;;;;;;;;;5087384;28;20197;-63
2022/11/21 01:15:16;;;;;;;47.20;35.67;;;;;;;;;;5072625;28;20179;-63
2022/11/21 01:17:41;;;;;;;46.70;35.97;;;;;;;;;;5081084;28;20224;-63
2022/11/21 01:20:06;;;;;;;51.40;37.17;;;;;;;;;;5072135;28;20179;-64
2022/11/21 01:22:32;;;;;;;47.63;34.97;;;;;;;;;;5079251;28;20184;-64
2022/11/21 01:24:57;;;;;;;45.80;34.10;;;;;;;;;;5062989;28;20267;-63
2022/11/21 01:27:22;;;;;;;41.70;34.43;;;;;;;;;;5068884;28;20215;-64
2022/11/21 01:29:47;;;;;;;40.33;32.63;;;;;;;;;;5070350;28;20175;-62
2022/11/21 01:32:12;;;;;;;45.87;34.63;;;;;;;;;;5060056;28;20188;-64
2022/11/21 01:34:38;;;;;;;44.13;33.17;;;;;;;;;;5064668;28;20183;-65
2022/11/21 01:37:03;;;;;;;49.23;35.60;;;;;;;;;;5058357;28;20609;-65
2022/11/21 01:39:28;;;;;;;46.77;33.47;;;;;;;;;;5062361;28;20200;-66
2022/11/21 01:41:53;;;;;;;43.50;31.17;;;;;;;;;;5069925;28;20224;-65
2022/11/21 01:44:20;;;;;;;43.43;33.17;;;;;;;;;;5070510;28;20199;-65
2022/11/21 01:46:45;;;;;;;40.73;31.30;;;;;;;;;;5072862;28;20537;-65
2022/11/21 01:49:12;;;;;;;38.57;32.43;;;;;;;;;;5070495;28;20597;-66
2022/11/21 01:51:41;;;;;;;39.60;30.57;;;;;;;;;;5059470;28;20171;-64
2022/11/21 01:54:18;;;;;;;40.07;29.63;;;;;;;;;;5056389;28;20599;-65
2022/11/21 01:56:47;;;;;;;38.27;29.20;;;;;;;;;;5061654;28;20594;-66
2022/11/21 01:59:16;;;;;;;40.30;31.07;;;;;;;;;;5067692;28;20791;-66
2022/11/21 02:01:41;;;;;;;38.73;30.53;;;;;;;;;;5062860;28;20700;-67
2022/11/21 02:04:06;;;;;;;39.93;29.87;;;;;;;;;;5057992;28;20745;-67
2022/11/21 02:06:33;;;;;;;38.10;29.20;;;;;;;;;;5072661;28;20183;-66
2022/11/21 02:08:59;;;;;;;39.30;29.93;;;;;;;;;;5072306;28;20228;-67
2022/11/21 02:11:28;;;;;;;41.17;29.40;;;;;;;;;;5070422;28;20598;-67
2022/11/21 02:13:54;;;;;;;33.80;28.77;;;;;;;;;;5053215;28;20983;-66
2022/11/21 02:16:19;;;;;;;36.30;28.50;;;;;;;;;;5052768;28;20606;-67
2022/11/21 02:18:44;;;;;;;36.40;28.50;;;;;;;;;;5067303;28;20699;-66
2022/11/21 02:21:39;;;;;;;36.07;28.43;;;;;;;;;;5070697;28;20638;-67
2022/11/21 02:24:16;;;;;;;40.03;28.57;;;;;;;;;;5055967;28;20191;-68
2022/11/21 02:26:42;;;;;;;37.20;29.73;;;;;;;;;;5066141;28;20615;-70
2022/11/21 02:29:08;;;;;;;39.90;29.73;;;;;;;;;;5059442;28;20587;-71
2022/11/21 02:31:33;;;;;;;37.40;29.77;;;;;;;;;;5066327;28;20606;-69
2022/11/21 02:33:58;;;;;;;37.93;30.13;;;;;;;;;;5061136;28;20678;-71
2022/11/21 02:36:50;;;;;;;39.23;29.73;;;;;;;;;;5056137;28;20179;-71
2022/11/21 02:39:18;;;;;;;38.37;29.00;;;;;;;;;;5057272;28;20212;-72
2022/11/21 02:41:48;;;;;;;37.17;29.07;;;;;;;;;;5057170;28;20598;-71
2022/11/21 02:44:19;;;;;;;39.47;30.37;;;;;;;;;;5060758;28;20786;-72
2022/11/21 02:46:46;;;;;;;34.93;29.07;;;;;;;;;;5063828;28;21166;-70
2022/11/21 02:49:12;;;;;;;35.73;29.03;;;;;;;;;;5052135;28;20595;-69
2022/11/21 02:51:37;;;;;;;38.00;30.27;;;;;;;;;;5054154;28;20972;-69
2022/11/21 02:54:02;;;;;;;39.83;31.77;;;;;;;;;;5052784;28;20252;-68
2022/11/21 02:56:28;;;;;;;41.80;31.27;;;;;;;;;;5071581;28;20240;-68
2022/11/21 02:58:53;;;;;;;37.70;30.03;;;;;;;;;;5069644;28;20216;-66
2022/11/21 03:01:18;;;;;;;39.30;31.50;;;;;;;;;;5064160;28;20236;-67
2022/11/21 03:03:43;;;;;;;35.33;28.43;;;;;;;;;;5058680;28;20162;-67
2022/11/21 03:06:08;;;;;;;36.60;30.00;;;;;;;;;;5055979;28;20527;-66
2022/11/21 03:08:33;;;;;;;36.58;29.15;;;;;;;;;;5055057;28;20182;-67
2022/11/21 03:10:58;;;;;;;35.73;30.67;;;;;;;;;;5065264;28;20172;-67
2022/11/21 03:13:24;;;;;;;35.90;29.23;;;;;;;;;;5054545;28;20303;-67
2022/11/21 03:15:49;;;;;;;34.53;28.17;;;;;;;;;;5047955;28;20175;-66
2022/11/21 03:18:14;;;;;;;35.37;27.67;;;;;;;;;;5064085;28;20233;-67
2022/11/21 03:20:39;;;;;;;35.20;28.90;;;;;;;;;;5069585;28;20235;-66
2022/11/21 03:23:04;;;;;;;43.67;30.67;;;;;;;;;;5056229;28;20172;-67
2022/11/21 03:25:30;;;;;;;36.47;28.87;;;;;;;;;;5050990;28;20172;-67
2022/11/21 03:27:55;;;;;;;39.50;30.10;;;;;;;;;;5048901;28;20178;-69
2022/11/21 03:30:21;;;;;;;32.53;28.17;;;;;;;;;;5050936;28;20169;-69
2022/11/21 03:32:46;;;;;;;35.77;28.50;;;;;;;;;;5050957;28;20208;-70
2022/11/21 03:35:12;;;;;;;34.17;28.73;;;;;;;;;;5070532;28;20620;-69
2022/11/21 03:37:37;;;;;;;30.07;26.10;;;;;;;;;;5070372;28;20347;-70
2022/11/21 03:40:02;;;;;;;32.28;26.02;;;;;;;;;;5070280;28;20226;-68
2022/11/21 03:42:27;;;;;;;31.70;26.90;;;;;;;;;;5070335;28;20169;-70
2022/11/21 03:44:52;;;;;;;31.13;24.90;;;;;;;;;;5055038;28;20238;-68
2022/11/21 03:47:18;;;;;;;31.80;25.67;;;;;;;;;;5061830;28;20412;-68
2022/11/21 03:49:43;;;;;;;28.40;24.53;;;;;;;;;;5066103;28;20192;-67
2022/11/21 03:52:08;;;;;;;30.50;24.93;;;;;;;;;;5076814;28;20182;-68
2022/11/21 03:54:33;;;;;;;26.13;22.47;;;;;;;;;;5071032;28;20181;-67
2022/11/21 03:56:58;;;;;;;27.40;22.37;;;;;;;;;;5066303;28;20165;-67
2022/11/21 03:59:25;;;;;;;25.53;21.70;;;;;;;;;;5065880;28;20223;-67
2022/11/21 04:01:50;;;;;;;23.97;21.40;;;;;;;;;;5061005;28;20172;-67
2022/11/21 04:04:15;;;;;;;24.95;22.25;;;;;;;;;;5068779;28;20677;-66
2022/11/21 04:06:40;;;;;;;26.23;22.83;;;;;;;;;;5050031;28;20201;-66
2022/11/21 04:09:05;;;;;;;24.97;22.27;;;;;;;;;;5061560;28;20189;-66
2022/11/21 04:11:30;;;;;;;23.33;20.83;;;;;;;;;;5069325;28;20233;-66
2022/11/21 04:13:56;;;;;;;22.77;20.30;;;;;;;;;;5070008;28;20212;-65
2022/11/21 04:16:21;;;;;;;24.50;21.80;;;;;;;;;;5068169;28;20288;-65
2022/11/21 04:18:46;;;;;;;24.30;21.80;;;;;;;;;;5068396;28;20684;-65
2022/11/21 04:21:11;;;;;;;27.87;23.07;;;;;;;;;;5061748;28;20200;-66
2022/11/21 04:23:36;;;;;;;24.33;20.33;;;;;;;;;;5063594;28;20175;-65
2022/11/21 04:26:02;;;;;;;23.37;20.87;;;;;;;;;;5069692;28;20164;-66
2022/11/21 04:28:27;;;;;;;22.33;20.00;;;;;;;;;;5067798;28;20722;-66
2022/11/21 04:30:52;;;;;;;24.17;21.30;;;;;;;;;;5059302;28;20681;-65
2022/11/21 04:33:18;;;;;;;23.47;20.80;;;;;;;;;;5053306;28;20261;-65
2022/11/21 04:35:44;;;;;;;25.53;21.70;;;;;;;;;;5063600;28;20654;-65
2022/11/21 04:38:09;;;;;;;24.10;21.60;;;;;;;;;;5059845;28;20201;-65
2022/11/21 04:40:35;;;;;;;26.23;22.70;;;;;;;;;;5060830;28;20638;-65
2022/11/21 04:43:00;;;;;;;24.10;21.17;;;;;;;;;;5060827;28;20176;-64
2022/11/21 04:45:25;;;;;;;25.87;23.13;;;;;;;;;;5053668;28;20172;-66
2022/11/21 04:47:50;;;;;;;24.40;21.40;;;;;;;;;;5052876;28;20180;-66
2022/11/21 04:50:16;;;;;;;25.43;22.70;;;;;;;;;;5056908;28;20621;-65
2022/11/21 04:52:42;;;;;;;28.00;23.70;;;;;;;;;;5061473;28;20197;-64
2022/11/21 04:55:07;;;;;;;26.23;23.43;;;;;;;;;;5063948;28;20611;-64
2022/11/21 04:57:33;;;;;;;28.50;24.30;;;;;;;;;;5057305;28;20172;-63
2022/11/21 04:59:58;;;;;;;24.43;21.83;;;;;;;;;;5072960;28;20205;-63
2022/11/21 05:02:23;;;;;;;28.90;22.63;;;;;;;;;;5069893;28;20179;-64
2022/11/21 05:04:48;;;;;;;27.43;23.23;;;;;;;;;;5075784;28;20670;-64
2022/11/21 05:07:14;;;;;;;28.17;22.43;;;;;;;;;;5060580;28;20269;-63
2022/11/21 05:09:39;;;;;;;25.80;23.10;;;;;;;;;;5064591;28;20241;-61
2022/11/21 05:14:48;;;;;;;25.10;21.40;;;;;;;;;;5074914;28;20195;-62
2022/11/21 05:17:13;;;;;;;26.33;23.47;;;;;;;;;;5071186;28;20574;-61
2022/11/21 05:19:39;;;;;;;26.80;23.50;;;;;;;;;;5075361;28;20224;-64
2022/11/21 05:22:04;;;;;;;26.93;24.13;;;;;;;;;;5076965;28;20260;-61
2022/11/21 05:24:29;;;;;;;23.00;20.70;;;;;;;;;;5084704;28;20281;-61
2022/11/21 05:26:54;;;;;;;27.80;24.80;;;;;;;;;;5061829;28;20177;-62
2022/11/21 05:29:19;;;;;;;26.73;23.83;;;;;;;;;;5058712;28;20221;-61
2022/11/21 05:31:45;;;;;;;28.57;25.57;;;;;;;;;;5057314;28;20182;-62
2022/11/21 05:34:10;;;;;;;28.90;25.90;;;;;;;;;;5063505;28;20202;-61
2022/11/21 05:36:35;;;;;;;30.90;25.37;;;;;;;;;;5065361;28;20174;-61
2022/11/21 05:39:00;;;;;;;25.70;23.00;;;;;;;;;;5053994;28;20201;-61
2022/11/21 05:41:25;;;;;;;26.60;23.70;;;;;;;;;;5050580;28;20182;-62
2022/11/21 05:43:50;;;;;;;26.10;23.40;;;;;;;;;;5053997;28;20179;-61
2022/11/21 05:46:17;;;;;;;27.00;23.03;;;;;;;;;;5048928;28;20192;-61
2022/11/21 05:48:42;;;;;;;26.67;23.67;;;;;;;;;;5058236;28;20219;-61
2022/11/21 05:51:07;;;;;;;28.40;24.17;;;;;;;;;;5067415;28;20708;-61
2022/11/21 05:53:33;;;;;;;28.60;24.50;;;;;;;;;;5068978;28;20272;-60
2022/11/21 05:56:06;;;;;;;26.17;23.37;;;;;;;;;;5068577;28;20188;-60
2022/11/21 05:58:31;;;;;;;27.50;24.67;;;;;;;;;;5054223;28;20228;-60
2022/11/21 06:00:57;;;;;;;25.87;23.10;;;;;;;;;;5061051;28;20641;-60
2022/11/21 06:03:25;;;;;;;27.70;24.43;;;;;;;;;;5063857;28;20174;-60
2022/11/21 06:05:51;;;;;;;27.87;24.90;;;;;;;;;;5049704;28;20635;-60
2022/11/21 06:08:16;;;;;;;27.70;24.80;;;;;;;;;;5049549;28;20611;-61
2022/11/21 06:10:41;;;;;;;30.40;25.00;;;;;;;;;;5051677;28;20209;-60
2022/11/21 06:13:20;;;;;;;28.10;24.00;;;;;;;;;;5046683;28;20201;-60
2022/11/21 06:15:46;;;;;;;30.77;27.33;;;;;;;;;;5051644;28;20195;-61
2022/11/21 06:18:11;;;;;;;28.47;25.47;;;;;;;;;;5054916;28;20647;-60
2022/11/21 06:20:37;;;;;;;29.40;26.10;;;;;;;;;;5067474;28;20597;-60
2022/11/21 06:23:02;;;;;;;30.23;25.97;;;;;;;;;;5053207;28;20180;-60
2022/11/21 06:25:27;;;;;;;29.70;25.93;;;;;;;;;;5056411;28;20173;-61
2022/11/21 06:27:52;;;;;;;28.77;25.60;;;;;;;;;;5051141;28;20246;-60
2022/11/21 06:30:17;;;;;;;32.47;27.47;;;;;;;;;;5052162;28;20181;-60
2022/11/21 06:32:42;;;;;;;29.00;25.90;;;;;;;;;;5052307;28;20214;-60
2022/11/21 06:35:08;;;;;;;28.50;24.63;;;;;;;;;;5051399;28;20181;-60
2022/11/21 06:37:33;;;;;;;26.63;23.23;;;;;;;;;;5052314;28;20187;-60
2022/11/21 06:39:58;;;;;;;33.47;28.60;;;;;;;;;;5052213;28;20208;-61
2022/11/21 06:42:23;;;;;;;31.90;25.77;;;;;;;;;;5052002;28;20307;-62
2022/11/21 06:44:48;;;;;;;30.37;27.07;;;;;;;;;;5052252;28;20184;-60
2022/11/21 06:47:14;;;;;;;31.85;28.45;;;;;;;;;;5066411;28;20178;-59
2022/11/21 06:49:39;;;;;;;39.73;30.97;;;;;;;;;;5072050;28;20672;-60
2022/11/21 06:52:04;;;;;;;33.27;26.80;;;;;;;;;;5071979;28;20169;-59
2022/11/21 06:54:29;;;;;;;37.40;29.80;;;;;;;;;;5069843;28;20179;-59
2022/11/21 06:56:54;;;;;;;32.73;26.90;;;;;;;;;;5066931;28;20264;-59
2022/11/21 06:59:19;;;;;;;34.03;29.30;;;;;;;;;;5069340;28;20203;-59
2022/11/21 07:01:45;;;;;;;35.10;29.53;;;;;;;;;;5067665;28;20219;-60
2022/11/21 07:04:10;;;;;;;36.77;29.47;;;;;;;;;;5060776;28;20561;-60
2022/11/21 07:06:35;;;;;;;31.50;28.03;;;;;;;;;;5079886;28;20204;-59
2022/11/21 07:09:00;;;;;;;31.60;27.53;;;;;;;;;;5091581;28;20175;-59
2022/11/21 07:11:25;;;;;;;30.67;27.00;;;;;;;;;;5061398;28;20688;-59
2022/11/21 07:13:50;;;;;;;31.73;27.13;;;;;;;;;;5057950;28;20200;-59
2022/11/21 07:16:16;;;;;;;29.37;25.40;;;;;;;;;;5056108;28;20770;-59
2022/11/21 07:18:41;;;;;;;34.87;26.13;;;;;;;;;;5055511;28;20215;-59
2022/11/21 07:21:07;;;;;;;27.67;24.20;;;;;;;;;;5054265;28;20168;-59
2022/11/21 07:23:33;;;;;;;29.90;23.03;;;;;;;;;;5052664;28;20199;-61
2022/11/21 07:25:58;;;;;;;26.80;22.23;;;;;;;;;;5062688;28;20259;-59
2022/11/21 07:28:23;;;;;;;25.33;22.50;;;;;;;;;;5053875;28;20184;-59
2022/11/21 07:30:49;;;;;;;25.20;22.37;;;;;;;;;;5052241;28;20188;-58
2022/11/21 07:33:14;;;;;;;23.97;19.87;;;;;;;;;;5055281;28;20859;-58
2022/11/21 07:35:41;;;;;;;27.00;21.80;;;;;;;;;;5065398;28;20181;-59
2022/11/21 07:38:06;;;;;;;24.33;21.40;;;;;;;;;;5057897;28;20177;-59
2022/11/21 07:40:34;;;;;;;22.10;18.80;;;;;;;;;;5053002;28;20741;-56
2022/11/21 07:43:00;;;;;;;21.63;19.33;;;;;;;;;;5050351;28;20263;-58
2022/11/21 07:45:25;;;;;;;20.90;18.60;;;;;;;;;;5050628;28;20582;-58
2022/11/21 07:48:00;;;;;;;22.83;20.05;;;;;;;;;;5061578;28;20766;-58
2022/11/21 07:50:26;;;;;;;27.90;21.00;;;;;;;;;;5067958;28;20175;-60
2022/11/21 07:52:55;;;;;;;30.60;24.60;;;;;;;;;;5071028;28;20563;-60
2022/11/21 07:55:21;;;;;;;32.00;26.13;;;;;;;;;;5070579;28;20172;-59
2022/11/21 07:57:46;;;;;;;27.20;24.25;;;;;;;;;;5070790;28;20563;-59
2022/11/21 08:00:11;;;;;;;37.57;27.87;;;;;;;;;;5068988;28;20256;-59
2022/11/21 08:02:37;;;;;;;33.50;28.50;;;;;;;;;;5070757;28;20175;-59
2022/11/21 08:05:02;;;;;;;31.13;24.57;;;;;;;;;;5070903;28;20176;-59
2022/11/21 08:07:27;;;;;;;34.37;27.90;;;;;;;;;;5070625;28;20170;-59
2022/11/21 08:09:52;;;;;;;37.47;28.33;;;;;;;;;;5060389;28;20180;-59
2022/11/21 08:12:17;;;;;;;36.93;30.47;;;;;;;;;;5050212;28;20653;-59
2022/11/21 08:14:42;;;;;;;36.03;28.30;;;;;;;;;;5050731;28;20184;-59
2022/11/21 08:17:08;;;;;;;35.77;27.27;;;;;;;;;;5050528;28;20211;-59
2022/11/21 08:19:33;;;;;;;34.57;28.70;;;;;;;;;;5052049;28;20251;-59
2022/11/21 08:22:00;;;;;;;31.50;27.00;;;;;;;;;;5070522;28;20212;-59
2022/11/21 08:24:25;;;;;;;31.30;25.80;;;;;;;;;;5068646;28;20582;-59
2022/11/21 08:26:51;;;;;;;31.53;25.40;;;;;;;;;;5070699;28;20259;-58
2022/11/21 08:29:16;;;;;;;31.80;26.67;;;;;;;;;;5068034;28;20176;-58
2022/11/21 08:31:42;;;;;;;35.63;29.30;;;;;;;;;;5068684;28;20207;-59
2022/11/21 08:34:08;;;;;;;34.90;27.80;;;;;;;;;;5070614;28;20223;-59
2022/11/21 08:36:33;;;;;;;36.33;28.47;;;;;;;;;;5051546;28;20610;-59
2022/11/21 08:38:58;;;;;;;32.57;27.00;;;;;;;;;;5050201;28;20242;-59
2022/11/21 08:44:07;;;;;;;34.70;27.03;;;;;;;;;;5050747;28;20175;-59
2022/11/21 08:46:35;;;;;;;39.80;29.40;;;;;;;;;;5052684;28;20606;-59
2022/11/21 08:49:01;;;;;;;40.73;29.63;;;;;;;;;;5050482;28;20175;-58
2022/11/21 08:51:26;;;;;;;41.10;30.43;;;;;;;;;;5067245;28;21092;-59
2022/11/21 08:53:51;;;;;;;40.67;31.65;;;;;;;;;;5070281;28;20176;-59
2022/11/21 08:56:17;;;;;;;38.40;31.93;;;;;;;;;;5067928;28;20179;-58
2022/11/21 08:58:42;;;;;;;41.03;30.70;;;;;;;;;;5069817;28;20199;-59
2022/11/21 09:01:07;;;;;;;36.27;29.07;;;;;;;;;;5070125;28;20801;-58
2022/11/21 09:03:32;;;;;;;39.43;30.53;;;;;;;;;;5069762;28;20178;-59
2022/11/21 09:05:58;;;;;;;38.20;28.50;;;;;;;;;;5068110;28;20263;-59
2022/11/21 09:08:23;;;;;;;36.47;29.13;;;;;;;;;;5069782;28;20207;-59
2022/11/21 09:10:48;;;;;;;40.53;30.03;;;;;;;;;;5069962;28;20185;-58
2022/11/21 09:13:14;;;;;;;35.87;27.80;;;;;;;;;;5069248;28;20742;-59
2022/11/21 09:18:23;;;;;;;34.00;26.10;;;;;;;;;;5049545;28;20809;-58
2022/11/21 09:20:48;;;;;;;35.10;28.37;;;;;;;;;;5050165;28;20681;-59
2022/11/21 09:23:14;;;;;;;36.73;28.60;;;;;;;;;;5053434;28;20172;-59
2022/11/21 09:25:39;;;;;;;33.10;26.87;;;;;;;;;;5069251;28;20634;-59
2022/11/21 09:28:05;;;;;;;35.33;28.43;;;;;;;;;;5073768;28;20647;-59
2022/11/21 09:30:30;;;;;;;37.80;28.87;;;;;;;;;;5073399;28;20654;-59
2022/11/21 09:33:01;;;;;;;35.27;28.40;;;;;;;;;;5073386;28;20569;-59
2022/11/21 09:35:26;;;;;;;40.40;30.60;;;;;;;;;;5072337;28;20164;-59
2022/11/21 09:37:52;;;;;;;37.23;28.27;;;;;;;;;;5073679;28;20608;-59
2022/11/21 09:40:17;;;;;;;37.90;28.40;;;;;;;;;;5062556;28;20386;-59
2022/11/21 09:43:01;;;;;;;38.93;30.60;;;;;;;;;;5053397;28;20654;-59
2022/11/21 09:45:33;;;;;;;35.90;27.70;;;;;;;;;;5058864;28;20167;-59
2022/11/21 09:48:01;;;;;;;43.00;29.60;;;;;;;;;;5073262;28;21156;-60
2022/11/21 09:50:38;;;;;;;37.50;29.70;;;;;;;;;;5072916;28;20581;-58
2022/11/21 09:53:15;;;;;;;34.30;27.63;;;;;;;;;;5073319;28;20589;-61
2022/11/21 09:55:45;;;;;;;42.13;30.67;;;;;;;;;;5071376;28;21051;-59
2022/11/21 09:58:13;;;;;;;38.57;29.47;;;;;;;;;;5072868;28;20586;-59
2022/11/21 10:00:39;;;;;;;39.67;29.40;;;;;;;;;;5070409;28;21170;-58
2022/11/21 10:03:04;;;;;;;37.23;30.60;;;;;;;;;;5072807;28;20581;-59
2022/11/21 10:05:34;;;;;;;39.55;31.90;;;;;;;;;;5072751;28;20179;-58
2022/11/21 10:08:04;;;;;;;38.93;30.03;;;;;;;;;;5061817;28;20180;-59
2022/11/21 10:10:39;;;;;;;39.80;30.73;;;;;;;;;;5060605;28;20964;-58
2022/11/21 10:13:12;;;;;;;47.67;33.60;;;;;;;;;;5052764;28;21152;-59
2022/11/21 10:15:46;;;;;;;47.10;32.70;;;;;;;;;;5052435;28;20578;-59
2022/11/21 10:18:34;;;;;;;51.23;34.53;;;;;;;;;;5066885;28;20744;-59
2022/11/21 10:21:10;;;;;;;46.23;33.20;;;;;;;;;;5068193;28;21210;-60
2022/11/21 10:23:45;;;;;;;48.23;34.67;;;;;;;;;;5072401;28;20639;-59
2022/11/21 10:26:16;;;;;;;41.40;31.23;;;;;;;;;;5072313;28;20947;-59
2022/11/21 10:28:50;;;;;;;32.73;27.13;;;;;;;;;;5072198;28;20580;-59
2022/11/21 10:31:16;;;;;;;39.60;29.70;;;;;;;;;;5070784;28;20568;-59
2022/11/21 10:33:41;;;;;;;34.57;27.13;;;;;;;;;;5052240;28;20977;-60
2022/11/21 10:36:06;;;;;;;38.90;29.77;;;;;;;;;;5052317;28;20176;-59
2022/11/21 10:38:39;;;;;;;34.37;27.60;;;;;;;;;;5051913;28;20619;-60
2022/11/21 10:41:04;;;;;;;34.60;27.23;;;;;;;;;;5049433;28;20196;-59
2022/11/21 10:46:36;;;;;;;43.00;31.63;;;;;;;;;;5055833;28;20183;-60
2022/11/21 10:49:03;;;;;;;36.70;28.90;;;;;;;;;;5057480;28;20602;-59
2022/11/21 10:51:37;;;;;;;37.70;31.17;;;;;;;;;;5050078;28;20263;-59
2022/11/21 10:56:52;;;;;;;42.90;31.80;;;;;;;;;;5051331;28;20565;-59
2022/11/21 10:59:25;;;;;;;36.93;29.93;;;;;;;;;;5050722;28;20658;-59
2022/11/21 11:02:00;;;;;;;41.50;31.80;;;;;;;;;;5051155;28;20762;-59
2022/11/21 11:04:30;;;;;;;39.40;31.30;;;;;;;;;;5051385;28;20571;-59
2022/11/21 11:06:55;;;;;;;40.03;31.90;;;;;;;;;;5056052;28;20611;-59
2022/11/21 11:09:27;;;;;;;42.50;31.33;;;;;;;;;;5064962;28;21126;-59
2022/11/21 11:11:52;;;;;;;37.37;29.37;;;;;;;;;;5071216;28;20203;-59
2022/11/21 11:14:26;;;;;;;40.90;32.73;;;;;;;;;;5071265;28;20604;-59
2022/11/21 11:16:51;;;;;;;44.87;32.80;;;;;;;;;;5071200;28;20257;-58
2022/11/21 11:19:19;;;;;;;45.97;32.73;;;;;;;;;;5066437;28;21102;-59
2022/11/21 11:21:44;;;;;;;42.00;31.33;;;;;;;;;;5051044;28;20173;-59
2022/11/21 11:24:10;;;;;;;35.03;28.30;;;;;;;;;;5051134;28;20601;-58
2022/11/21 11:26:47;;;;;;;34.80;27.63;;;;;;;;;;5051326;28;20233;-58
2022/11/21 11:29:14;;;;;;;36.27;30.33;;;;;;;;;;5062163;28;20219;-57
2022/11/21 11:31:40;;;;;;;34.60;27.87;;;;;;;;;;5069370;28;21154;-59
2022/11/21 11:34:10;;;;;;;35.47;29.63;;;;;;;;;;5089997;28;20652;-57
2022/11/21 11:36:38;;;;;;;34.67;29.17;;;;;;;;;;5085458;28;20602;-59
2022/11/21 11:39:15;;;;;;;37.33;30.20;;;;;;;;;;5070601;28;20888;-58
2022/11/21 11:47:47;;;;;;;35.90;29.67;;;;;;;;;;5051005;28;20756;-57
2022/11/21 11:50:25;;;;;;;34.07;27.63;;;;;;;;;;5050318;28;20582;-57
2022/11/21 11:53:02;;;;;;;38.77;29.27;;;;;;;;;;5050365;28;20574;-58
2022/11/21 11:55:36;;;;;;;35.50;27.57;;;;;;;;;;5050602;28;20634;-58
2022/11/21 11:58:05;;;;;;;32.47;27.40;;;;;;;;;;5058537;28;21264;-58
2022/11/21 12:00:34;;;;;;;41.07;31.37;;;;;;;;;;5070289;28;20636;-57
2022/11/21 12:03:02;;;;;;;41.20;31.30;;;;;;;;;;5070529;28;20928;-57
2022/11/21 12:05:29;;;;;;;35.23;28.70;;;;;;;;;;5070521;28;20595;-57
2022/11/21 12:08:02;;;;;;;36.87;28.47;;;;;;;;;;5069214;28;20595;-57
2022/11/21 12:12:05;;;;;;;39.00;30.70;;;;;;;;;;5070040;28;20770;-57
2022/11/21 12:13:21;;;;;;;35.27;28.27;;;;;;;;;;5070304;28;20627;-57
2022/11/21 12:15:49;;;;;;;39.60;28.40;;;;;;;;;;5070250;28;20579;-57
2022/11/21 12:18:18;;;;;;;33.47;28.07;;;;;;;;;;5068991;28;20712;-57
2022/11/21 12:20:52;;;;;;;38.27;29.43;;;;;;;;;;5049538;28;20685;-58
2022/11/21 12:23:17;;;;;;;37.07;30.10;;;;;;;;;;5050216;28;20579;-57
2022/11/21 12:26:01;;;;;;;38.30;29.90;;;;;;;;;;5050252;28;20583;-57
2022/11/21 12:28:32;;;;;;;38.27;28.93;;;;;;;;;;5050371;28;20173;-58
2022/11/21 12:31:01;;;;;;;37.30;29.20;;;;;;;;;;5050051;28;20617;-57
2022/11/21 12:33:27;;;;;;;43.13;30.50;;;;;;;;;;5050322;28;20602;-57
2022/11/21 12:35:58;;;;;;;37.30;30.77;;;;;;;;;;5050170;28;20592;-57
2022/11/21 12:38:39;;;;;;;41.10;31.70;;;;;;;;;;5050270;28;20707;-56
2022/11/21 12:44:22;;;;;;;39.13;30.53;;;;;;;;;;5055862;28;20585;-60
2022/11/21 12:46:57;;;;;;;41.90;30.17;;;;;;;;;;5069886;28;21166;-55
2022/11/21 12:55:20;;;;;;;39.67;29.50;;;;;;;;;;5032898;28;20622;-56
2022/11/21 12:57:48;;;;;;;34.90;28.53;;;;;;;;;;5073651;28;20592;-57
2022/11/21 13:00:23;;;;;;;36.80;27.67;;;;;;;;;;5073225;28;20690;-56
2022/11/21 13:03:07;;;;;;;42.03;29.73;;;;;;;;;;5073542;28;20587;-58
2022/11/21 13:05:37;;;;;;;37.30;29.53;;;;;;;;;;5073658;28;20569;-56
2022/11/21 13:08:07;;;;;;;37.73;26.63;;;;;;;;;;5073833;28;20606;-56
2022/11/21 13:10:32;;;;;;;39.57;29.60;;;;;;;;;;5071675;28;20666;-57
2022/11/21 13:13:13;;;;;;;39.37;30.77;;;;;;;;;;5072935;28;20611;-57
2022/11/21 13:16:00;;;;;;;39.70;29.60;;;;;;;;;;5071622;28;20217;-56
2022/11/21 13:18:29;;;;;;;38.60;29.87;;;;;;;;;;5073533;28;20999;-57
2022/11/21 13:20:54;;;;;;;44.87;31.80;;;;;;;;;;5071601;28;20637;-56
2022/11/21 13:23:36;;;;;;;42.90;31.10;;;;;;;;;;5073279;28;20659;-57
2022/11/21 13:26:01;;;;;;;39.40;29.23;;;;;;;;;;5073286;28;20172;-55
2022/11/21 13:28:31;;;;;;;40.23;29.43;;;;;;;;;;5065483;28;20657;-56
2022/11/21 13:30:57;;;;;;;40.53;30.40;;;;;;;;;;5055210;28;20181;-56
2022/11/21 13:33:35;;;;;;;52.17;35.00;;;;;;;;;;5067039;28;20609;-56
2022/11/21 13:36:02;;;;;;;48.10;33.50;;;;;;;;;;5070430;28;20610;-56
2022/11/21 13:38:27;;;;;;;47.00;33.47;;;;;;;;;;5072399;28;20590;-55
2022/11/21 13:43:36;;;;;;;44.90;32.20;;;;;;;;;;5073245;28;20238;-57
2022/11/21 13:46:02;;;;;;;46.37;34.20;;;;;;;;;;5069315;28;20594;-56
2022/11/21 13:48:27;;;;;;;42.43;31.33;;;;;;;;;;5053183;28;20244;-55
2022/11/21 13:51:08;;;;;;;45.10;33.05;;;;;;;;;;5052971;28;20169;-55
2022/11/21 13:53:33;;;;;;;42.77;32.40;;;;;;;;;;5052592;28;20632;-57
2022/11/21 13:56:01;;;;;;;52.70;37.65;;;;;;;;;;5052838;28;21129;-57
2022/11/21 13:58:32;;;;;;;54.70;37.73;;;;;;;;;;5071428;28;20174;-55
2022/11/21 14:01:06;;;;;;;48.53;35.00;;;;;;;;;;5072499;28;20576;-56
2022/11/21 14:03:49;;;;;;;49.43;35.00;;;;;;;;;;5072875;28;20938;-56
2022/11/21 14:06:23;;;;;;;47.17;34.83;;;;;;;;;;5072666;28;20562;-56
2022/11/21 14:09:05;;;;;;;51.40;35.90;;;;;;;;;;5070339;28;20612;-56
2022/11/21 14:11:35;;;;;;;47.30;33.47;;;;;;;;;;5072635;28;20628;-57
2022/11/21 14:14:00;;;;;;;46.90;33.83;;;;;;;;;;5072601;28;20593;-55
2022/11/21 14:16:33;;;;;;;52.67;34.57;;;;;;;;;;5072704;28;21134;-55
2022/11/21 14:18:59;;;;;;;49.07;34.10;;;;;;;;;;5070558;28;20229;-57
2022/11/21 14:21:26;;;;;;;48.70;32.33;;;;;;;;;;5072127;28;20596;-56
2022/11/21 14:23:54;;;;;;;48.23;32.23;;;;;;;;;;5072338;28;20172;-56
2022/11/21 14:26:20;;;;;;;49.60;34.87;;;;;;;;;;5072483;28;20566;-56
2022/11/21 14:28:45;;;;;;;46.43;33.80;;;;;;;;;;5070338;28;20602;-55
2022/11/21 14:31:13;;;;;;;48.80;34.83;;;;;;;;;;5068094;28;20607;-55
2022/11/21 14:33:40;;;;;;;49.40;34.17;;;;;;;;;;5059980;28;20184;-56
2022/11/21 14:36:07;;;;;;;49.50;34.00;;;;;;;;;;5052044;28;20692;-55
2022/11/21 14:38:35;;;;;;;48.23;34.70;;;;;;;;;;5052432;28;20579;-55
2022/11/21 14:41:19;;;;;;;51.80;34.20;;;;;;;;;;5071678;28;20609;-56
2022/11/21 14:43:44;;;;;;;46.63;36.50;;;;;;;;;;5072099;28;20587;-55
2022/11/21 14:46:18;;;;;;;57.57;39.07;;;;;;;;;;5072430;28;20747;-56
2022/11/21 14:48:43;;;;;;;56.03;36.63;;;;;;;;;;5054282;28;20669;-56